Terminal Aerodrome Forecast
Issued by NWS

Home | Current Version | Previous Version | Text Only | Print | Product List | Glossary Off
Versions: 1 2 3 4 5 6 7 8 9 10 11 12 13 14 15 16 17 18 19 20 21 22 23 24 25 26 27 28 29 30 31 32 33 34 35 36 37 38 39 40 41 42 43 44 45 46 47 48 49 50

007
FTUS43 KLOT 250721 AAB
TAFGYY
TAF AMD
KGYY 250721Z 2507/2606 35018G27KT P6SM BKN025 BKN100
     FM251100 36016G25KT P6SM FEW025 BKN100
     FM251400 36015G24KT P6SM FEW030 SCT200
     FM252200 01011G18KT P6SM SKC
     FM260200 01008KT P6SM SKC=

USA.gov is the U.S. government's official web portal to all federal, state and local government web resources and services.